createdAt,value
2023-04-26T00:02:04.743Z,65.43
2023-04-26T00:04:32.255Z,65.80
2023-04-26T00:07:00.579Z,65.33
2023-04-26T00:09:27.947Z,65.42
2023-04-26T00:11:55.210Z,64.86
2023-04-26T00:14:22.484Z,64.83
2023-04-26T00:16:49.750Z,65.84
2023-04-26T00:19:17.763Z,65.52
2023-04-26T00:21:44.992Z,65.20
2023-04-26T00:24:12.281Z,65.87
2023-04-26T00:26:39.490Z,65.59
2023-04-26T00:29:07.210Z,65.43
2023-04-26T00:31:34.506Z,66.28
2023-04-26T00:34:01.919Z,65.26
2023-04-26T00:36:29.147Z,66.04
2023-04-26T00:38:56.468Z,65.37
2023-04-26T00:41:24.417Z,65.43
2023-04-26T00:43:51.707Z,65.48
2023-04-26T00:46:18.989Z,65.52
2023-04-26T00:48:47.200Z,65.01
2023-04-26T00:51:14.684Z,65.41
2023-04-26T00:53:42.325Z,65.80
2023-04-26T00:56:09.962Z,64.87
2023-04-26T00:58:37.688Z,65.01
2023-04-26T01:01:04.979Z,63.69
2023-04-26T01:03:32.486Z,63.22
2023-04-26T01:06:01.143Z,63.19
2023-04-26T01:08:28.459Z,63.87
2023-04-26T01:10:58.266Z,63.85
2023-04-26T01:13:26.218Z,63.50
2023-04-26T01:15:53.481Z,64.49
2023-04-26T01:18:20.881Z,64.23
2023-04-26T01:20:48.560Z,64.36
2023-04-26T01:23:16.030Z,64.56
2023-04-26T01:25:43.265Z,64.77
2023-04-26T01:28:10.562Z,65.62
2023-04-26T01:30:37.778Z,65.94
2023-04-26T01:33:05.862Z,65.76
2023-04-26T01:35:33.646Z,66.70
2023-04-26T01:38:00.987Z,66.21
2023-04-26T01:40:28.529Z,66.45
2023-04-26T01:42:56.296Z,66.39
2023-04-26T01:45:24.136Z,66.19
2023-04-26T01:48:09.875Z,66.44
2023-04-26T01:50:37.277Z,66.51
2023-04-26T01:53:04.683Z,66.92
2023-04-26T01:55:31.986Z,66.97
2023-04-26T01:57:59.229Z,67.32
2023-04-26T02:00:28.254Z,67.34
2023-04-26T02:02:58.709Z,67.36
2023-04-26T02:05:26.191Z,66.96
2023-04-26T02:07:53.504Z,67.31
2023-04-26T02:10:21.076Z,67.57
2023-04-26T02:12:48.272Z,67.56
2023-04-26T02:15:15.691Z,66.29
2023-04-26T02:17:42.976Z,66.12
2023-04-26T02:20:11.506Z,66.32
2023-04-26T02:22:38.834Z,65.83
2023-04-26T02:25:07.193Z,66.01
2023-04-26T02:27:34.493Z,66.59
2023-04-26T02:30:01.813Z,66.72
2023-04-26T02:32:29.487Z,66.49
2023-04-26T02:34:57.892Z,66.93
2023-04-26T02:37:26.770Z,66.79
2023-04-26T02:39:54.141Z,67.30
2023-04-26T02:42:21.732Z,66.88
2023-04-26T02:44:49.162Z,66.75
2023-04-26T02:47:16.947Z,67.10
2023-04-26T02:49:44.384Z,67.43
2023-04-26T02:52:11.753Z,67.65
2023-04-26T02:54:39.099Z,68.25
2023-04-26T02:57:06.397Z,68.15
2023-04-26T02:59:33.757Z,67.63
2023-04-26T03:02:01.102Z,67.71
2023-04-26T03:04:28.936Z,68.35
2023-04-26T03:06:56.254Z,68.11
2023-04-26T03:09:23.820Z,67.76
2023-04-26T03:11:52.382Z,67.91
2023-04-26T03:14:20.130Z,67.28
2023-04-26T03:16:48.662Z,67.72
2023-04-26T03:19:16.161Z,66.91
2023-04-26T03:21:44.131Z,67.16
2023-04-26T03:24:11.857Z,66.37
2023-04-26T03:26:39.250Z,66.85
2023-04-26T03:29:07.728Z,66.86
2023-04-26T03:31:35.021Z,66.43
2023-04-26T03:34:02.678Z,66.55
2023-04-26T03:36:30.005Z,66.69
2023-04-26T03:38:57.504Z,66.71
2023-04-26T03:41:25.362Z,66.65
2023-04-26T03:43:54.395Z,66.34
2023-04-26T03:46:21.745Z,67.02
2023-04-26T03:48:49.418Z,66.83
2023-04-26T03:51:17.196Z,67.50
2023-04-26T03:53:46.910Z,67.26
2023-04-26T03:56:14.298Z,67.34
2023-04-26T03:58:42.227Z,67.20
2023-04-26T04:01:09.523Z,66.17
2023-04-26T04:03:40.049Z,66.48
2023-04-26T04:06:08.810Z,66.43
2023-04-26T04:08:36.138Z,66.62
2023-04-26T04:11:03.503Z,66.65
2023-04-26T04:13:31.713Z,65.39
2023-04-26T04:15:59.117Z,65.04
2023-04-26T04:18:26.617Z,64.65
2023-04-26T04:20:53.998Z,64.73
2023-04-26T04:23:21.590Z,64.47
2023-04-26T04:25:49.283Z,63.58
2023-04-26T04:28:16.599Z,63.80
2023-04-26T04:30:46.387Z,62.56
2023-04-26T04:33:14.561Z,62.40
2023-04-26T04:35:42.031Z,62.75
2023-04-26T04:38:09.302Z,61.99
2023-04-26T04:40:36.820Z,61.93
2023-04-26T04:43:04.616Z,62.65
2023-04-26T04:45:33.022Z,61.66
2023-04-26T04:48:01.515Z,61.84
2023-04-26T04:50:29.421Z,61.05
2023-04-26T04:52:56.795Z,60.77
2023-04-26T04:55:24.479Z,60.29
2023-04-26T04:57:52.236Z,60.62
2023-04-26T05:00:20.158Z,61.05
2023-04-26T05:02:52.300Z,63.12
2023-04-26T05:05:20.610Z,60.45
2023-04-26T05:07:48.013Z,61.36
2023-04-26T05:10:16.083Z,60.84
2023-04-26T05:12:43.568Z,61.07
2023-04-26T05:15:11.134Z,58.76
2023-04-26T05:17:39.398Z,57.94
2023-04-26T05:20:18.785Z,59.42
2023-04-26T05:22:47.208Z,57.39
2023-04-26T05:25:14.856Z,57.44
2023-04-26T05:27:43.535Z,57.37
2023-04-26T05:30:20.456Z,56.18
2023-04-26T05:32:57.731Z,56.29
2023-04-26T05:35:35.545Z,56.20
2023-04-26T05:38:03.901Z,55.66
2023-04-26T05:40:32.509Z,56.04
2023-04-26T05:43:01.469Z,56.22
2023-04-26T05:45:29.503Z,55.15
2023-04-26T05:47:57.107Z,54.46
2023-04-26T05:50:29.140Z,54.52
2023-04-26T05:53:01.433Z,55.85
2023-04-26T05:55:40.603Z,54.85
2023-04-26T05:58:12.113Z,53.43
2023-04-26T06:00:41.732Z,53.43
2023-04-26T06:03:10.055Z,53.37
2023-04-26T06:05:40.516Z,52.96
2023-04-26T06:08:10.931Z,51.45
2023-04-26T06:10:38.637Z,52.10
2023-04-26T06:13:06.830Z,51.55
2023-04-26T06:15:39.841Z,51.33
2023-04-26T06:18:07.310Z,51.68
2023-04-26T06:20:41.304Z,50.70
2023-04-26T06:23:09.572Z,50.13
2023-04-26T06:25:37.313Z,51.48
2023-04-26T06:28:05.300Z,52.23
2023-04-26T06:30:33.192Z,50.19
2023-04-26T06:33:01.212Z,50.73
2023-04-26T06:35:33.332Z,49.71
2023-04-26T06:38:03.763Z,49.40
2023-04-26T06:40:32.917Z,49.00
2023-04-26T06:43:02.388Z,42.44
2023-04-26T06:45:58.494Z,38.17
2023-04-26T06:48:26.187Z,36.72
2023-04-26T06:50:53.919Z,34.95
2023-04-26T06:53:23.192Z,34.58
2023-04-26T06:55:50.857Z,33.12
2023-04-26T06:58:21.917Z,32.87
2023-04-26T07:00:49.614Z,31.73
2023-04-26T07:03:19.698Z,31.92
2023-04-26T07:05:47.663Z,31.28
2023-04-26T07:08:15.156Z,32.93
2023-04-26T07:10:43.084Z,32.68
2023-04-26T07:13:10.701Z,32.91
2023-04-26T07:15:38.487Z,34.07
2023-04-26T07:18:05.936Z,32.73
2023-04-26T07:20:33.348Z,33.06
2023-04-26T07:23:00.657Z,31.60
2023-04-26T07:25:28.274Z,31.73
2023-04-26T07:27:55.786Z,32.38
2023-04-26T07:30:23.516Z,32.58
2023-04-26T07:32:51.253Z,31.71
2023-04-26T07:35:18.670Z,31.13
2023-04-26T07:37:46.553Z,31.14
2023-04-26T07:40:14.215Z,29.69
2023-04-26T07:42:41.826Z,29.86
2023-04-26T07:45:10.000Z,31.11
2023-04-26T07:47:40.743Z,30.82
2023-04-26T07:50:19.761Z,30.31
2023-04-26T07:52:47.922Z,30.91
2023-04-26T07:55:17.644Z,32.15
2023-04-26T07:57:51.856Z,35.47
2023-04-26T08:00:32.212Z,37.46
2023-04-26T08:02:59.949Z,35.43
2023-04-26T08:05:28.015Z,38.40
2023-04-26T08:07:55.476Z,41.30
2023-04-26T08:10:23.139Z,39.51
2023-04-26T08:12:51.905Z,41.13
2023-04-26T08:15:22.149Z,41.85
2023-04-26T08:17:54.351Z,41.86
2023-04-26T08:20:21.919Z,38.09
2023-04-26T08:22:49.338Z,35.79
2023-04-26T08:25:16.677Z,35.86
2023-04-26T08:27:45.002Z,36.17
2023-04-26T08:30:13.149Z,36.29
2023-04-26T08:32:43.402Z,34.20
2023-04-26T08:35:11.805Z,32.51
2023-04-26T08:37:45.097Z,33.44
2023-04-26T08:40:13.019Z,32.43
2023-04-26T08:42:44.408Z,32.28
2023-04-26T08:45:11.801Z,31.79
2023-04-26T08:47:43.979Z,34.47
2023-04-26T08:50:13.960Z,36.93
2023-04-26T08:52:41.907Z,39.19
2023-04-26T08:55:10.852Z,38.72
2023-04-26T08:57:39.141Z,40.44
2023-04-26T09:00:13.681Z,40.47
2023-04-26T09:02:50.483Z,39.40
2023-04-26T09:05:24.215Z,40.55
2023-04-26T09:07:53.170Z,40.68
2023-04-26T09:10:22.143Z,40.47
2023-04-26T09:12:52.478Z,39.76
2023-04-26T09:15:23.475Z,39.52
2023-04-26T09:17:52.047Z,38.15
2023-04-26T09:20:29.029Z,37.72
2023-04-26T09:23:06.760Z,37.87
2023-04-26T09:25:34.802Z,36.93
2023-04-26T09:28:02.873Z,37.56
2023-04-26T09:30:31.160Z,38.08
2023-04-26T09:33:00.251Z,38.32
2023-04-26T09:35:37.065Z,37.75
2023-04-26T09:38:11.046Z,37.50
2023-04-26T09:40:44.375Z,37.36
2023-04-26T09:43:12.796Z,37.65
2023-04-26T09:45:51.405Z,37.77
2023-04-26T09:48:28.591Z,38.30
2023-04-26T09:51:08.808Z,36.51
2023-04-26T09:54:17.801Z,36.11
2023-04-26T09:56:59.961Z,36.24
2023-04-26T09:59:27.415Z,35.08
2023-04-26T10:01:55.990Z,36.30
2023-04-26T10:04:24.456Z,36.03
2023-04-26T10:06:51.925Z,35.97
2023-04-26T10:09:19.275Z,35.93
2023-04-26T10:11:47.083Z,35.11
2023-04-26T10:14:14.688Z,36.25
2023-04-26T10:16:42.306Z,35.34
2023-04-26T10:19:12.179Z,37.09
2023-04-26T10:21:40.134Z,36.55
2023-04-26T10:24:08.548Z,36.34
2023-04-26T10:26:49.882Z,35.78
2023-04-26T10:29:18.077Z,36.93
2023-04-26T10:32:12.280Z,37.34
2023-04-26T10:34:40.484Z,36.08
2023-04-26T10:37:09.196Z,36.28
2023-04-26T10:39:37.321Z,36.68
2023-04-26T10:42:25.923Z,36.70
2023-04-26T10:44:57.198Z,37.40
2023-04-26T10:47:35.288Z,37.38
2023-04-26T10:50:12.922Z,38.15
2023-04-26T10:53:04.793Z,37.52
2023-04-26T10:55:44.366Z,37.00
2023-04-26T10:58:33.393Z,36.83
2023-04-26T11:01:08.835Z,37.80
2023-04-26T11:03:37.536Z,34.84
2023-04-26T11:06:15.454Z,36.33
2023-04-26T11:08:43.480Z,36.51
2023-04-26T11:11:12.247Z,35.72
2023-04-26T11:13:43.410Z,35.34
2023-04-26T11:16:12.254Z,34.91
2023-04-26T11:18:46.710Z,35.74
2023-04-26T11:21:19.706Z,35.72
2023-04-26T11:23:54.078Z,36.31
2023-04-26T11:26:22.154Z,35.71
2023-04-26T11:28:49.938Z,36.27
2023-04-26T11:31:18.769Z,35.39
2023-04-26T11:33:49.223Z,35.53
2023-04-26T11:36:19.899Z,35.50
2023-04-26T11:38:47.628Z,35.13
2023-04-26T11:41:23.767Z,36.66
2023-04-26T11:43:52.126Z,36.95
2023-04-26T11:46:20.421Z,36.50
2023-04-26T11:48:48.009Z,37.20
2023-04-26T11:51:18.022Z,36.98
2023-04-26T11:53:45.725Z,37.22
2023-04-26T11:56:17.045Z,37.57
2023-04-26T11:58:52.187Z,37.78
2023-04-26T12:01:23.941Z,36.73
2023-04-26T12:03:58.212Z,36.91
2023-04-26T12:06:35.632Z,36.33
2023-04-26T12:09:05.895Z,35.34
2023-04-26T12:11:33.703Z,35.22
2023-04-26T12:14:01.848Z,34.80
2023-04-26T12:16:29.182Z,34.90
2023-04-26T12:18:59.324Z,34.17
2023-04-26T12:21:30.499Z,34.21
2023-04-26T12:23:58.503Z,33.95
2023-04-26T12:26:42.639Z,33.59
2023-04-26T12:29:10.035Z,33.81
2023-04-26T12:31:37.743Z,33.54
2023-04-26T12:34:05.157Z,33.65
2023-04-26T12:36:32.585Z,34.44
2023-04-26T12:39:02.285Z,33.56
2023-04-26T12:41:29.669Z,35.60
2023-04-26T12:43:57.881Z,35.11
2023-04-26T12:46:26.223Z,34.48
2023-04-26T12:48:53.653Z,34.95
2023-04-26T12:51:21.097Z,36.01
2023-04-26T12:53:48.357Z,37.57
2023-04-26T12:56:16.544Z,36.65
2023-04-26T12:58:43.851Z,38.50
2023-04-26T13:01:12.984Z,39.48
2023-04-26T13:03:41.186Z,39.84
2023-04-26T13:06:08.870Z,40.97
2023-04-26T13:08:36.205Z,41.24
2023-04-26T13:11:03.790Z,41.48
2023-04-26T13:13:42.418Z,40.84
2023-04-26T13:16:11.906Z,40.70
2023-04-26T13:18:40.384Z,40.56
2023-04-26T13:21:07.782Z,39.57
2023-04-26T13:23:35.115Z,38.98
2023-04-26T13:26:02.770Z,38.76
2023-04-26T13:28:30.082Z,39.31
2023-04-26T13:30:57.553Z,39.49
2023-04-26T13:33:24.787Z,39.47
2023-04-26T13:35:52.213Z,40.99
2023-04-26T13:38:19.548Z,40.34
2023-04-26T13:40:47.303Z,40.28
2023-04-26T13:43:14.621Z,39.92
2023-04-26T13:45:41.960Z,40.99
2023-04-26T13:48:09.257Z,41.20
2023-04-26T13:50:37.206Z,41.29
2023-04-26T13:53:04.706Z,42.25
2023-04-26T13:55:32.216Z,41.43
2023-04-26T13:57:59.498Z,40.51
2023-04-26T14:00:27.425Z,39.67
2023-04-26T14:02:54.943Z,38.91
2023-04-26T14:05:23.775Z,38.66
2023-04-26T14:07:54.250Z,37.35
2023-04-26T14:10:22.484Z,38.49
2023-04-26T14:12:49.707Z,38.87
2023-04-26T14:15:17.325Z,38.46
2023-04-26T14:17:47.033Z,38.83
2023-04-26T14:20:14.547Z,37.66
2023-04-26T14:22:41.837Z,37.82
2023-04-26T14:25:09.728Z,38.95
2023-04-26T14:27:37.405Z,39.23
2023-04-26T14:30:05.664Z,39.14
2023-04-26T14:32:33.206Z,39.59
2023-04-26T14:35:00.837Z,39.36
2023-04-26T14:37:28.105Z,37.68
2023-04-26T14:39:55.455Z,38.40
2023-04-26T14:42:23.128Z,39.59
2023-04-26T14:44:50.394Z,38.97
2023-04-26T14:47:17.700Z,41.18
2023-04-26T14:49:45.006Z,42.68
2023-04-26T14:52:12.297Z,44.01
2023-04-26T14:54:39.972Z,44.26
2023-04-26T14:57:07.922Z,44.57
2023-04-26T14:59:35.262Z,44.96
2023-04-26T15:02:03.763Z,45.00
2023-04-26T15:04:31.365Z,45.51
2023-04-26T15:06:58.757Z,45.12
2023-04-26T15:09:30.608Z,45.61
2023-04-26T15:11:58.154Z,46.51
2023-04-26T15:14:28.549Z,47.12
2023-04-26T15:16:55.914Z,46.44
2023-04-26T15:19:23.439Z,45.16
2023-04-26T15:21:51.663Z,46.25
2023-04-26T15:24:19.051Z,45.32
2023-04-26T15:26:46.503Z,44.67
2023-04-26T15:29:13.968Z,45.40
2023-04-26T15:31:41.457Z,45.81
2023-04-26T15:34:08.983Z,45.88
2023-04-26T15:36:36.496Z,45.67
2023-04-26T15:39:04.153Z,46.38
2023-04-26T15:41:33.112Z,46.22
2023-04-26T15:44:00.669Z,46.19
2023-04-26T15:46:28.104Z,45.56
2023-04-26T15:48:55.372Z,46.24
2023-04-26T15:51:22.759Z,46.13
2023-04-26T15:53:53.327Z,47.16
2023-04-26T15:56:20.876Z,47.36
2023-04-26T15:58:48.152Z,46.96
2023-04-26T16:01:15.728Z,46.89
2023-04-26T16:03:46.495Z,47.36
2023-04-26T16:06:16.515Z,46.28
2023-04-26T16:08:43.824Z,46.68
2023-04-26T16:11:11.250Z,46.44
2023-04-26T16:13:38.549Z,45.86
2023-04-26T16:16:08.249Z,46.11
2023-04-26T16:18:35.562Z,46.37
2023-04-26T16:21:07.212Z,46.48
2023-04-26T16:23:37.892Z,46.96
2023-04-26T16:26:05.519Z,47.10
2023-04-26T16:28:32.831Z,47.07
2023-04-26T16:31:09.666Z,47.65
2023-04-26T16:33:37.047Z,48.21
2023-04-26T16:36:04.511Z,48.21
2023-04-26T16:38:31.914Z,48.57
2023-04-26T16:40:59.572Z,48.57
2023-04-26T16:43:32.971Z,49.33
2023-04-26T16:46:03.409Z,48.83
2023-04-26T16:48:37.346Z,49.46
2023-04-26T16:51:07.966Z,49.69
2023-04-26T16:53:36.099Z,49.71
2023-04-26T16:56:03.597Z,49.94
2023-04-26T16:58:30.960Z,50.21
2023-04-26T17:00:58.306Z,50.40
2023-04-26T17:03:26.073Z,49.40
2023-04-26T17:05:53.587Z,49.29
2023-04-26T17:08:21.160Z,49.29
2023-04-26T17:10:50.885Z,49.43
2023-04-26T17:13:19.194Z,49.76
2023-04-26T17:15:47.144Z,49.72
2023-04-26T17:18:14.661Z,49.11
2023-04-26T17:20:42.387Z,48.75
2023-04-26T17:23:10.163Z,48.62
2023-04-26T17:25:37.402Z,48.61
2023-04-26T17:28:07.350Z,48.55
2023-04-26T17:30:34.593Z,48.84
2023-04-26T17:33:02.445Z,48.89
2023-04-26T17:35:29.765Z,48.69
2023-04-26T17:37:57.188Z,49.08
2023-04-26T17:40:24.409Z,49.02
2023-04-26T17:42:51.825Z,48.90
2023-04-26T17:45:19.176Z,49.62
2023-04-26T17:47:46.830Z,50.19
2023-04-26T17:50:15.500Z,50.55
2023-04-26T17:52:42.789Z,50.63
2023-04-26T17:55:10.252Z,50.79
2023-04-26T17:57:37.798Z,51.01
2023-04-26T18:00:06.904Z,51.72
2023-04-26T18:02:36.321Z,51.97
2023-04-26T18:05:04.811Z,52.11
2023-04-26T18:07:32.176Z,52.58
2023-04-26T18:09:59.377Z,52.85
2023-04-26T18:12:28.019Z,53.48
2023-04-26T18:14:55.319Z,53.39
2023-04-26T18:17:22.822Z,53.46
2023-04-26T18:19:50.947Z,53.80
2023-04-26T18:22:18.287Z,53.55
2023-04-26T18:24:45.574Z,53.53
2023-04-26T18:27:14.115Z,53.55
2023-04-26T18:29:41.644Z,53.19
2023-04-26T18:32:08.951Z,52.35
2023-04-26T18:34:36.267Z,52.43
2023-04-26T18:37:03.777Z,52.65
2023-04-26T18:39:31.675Z,52.30
2023-04-26T18:41:58.959Z,52.26
2023-04-26T18:44:26.225Z,52.56
2023-04-26T18:46:55.910Z,52.73
2023-04-26T18:49:23.909Z,52.87
2023-04-26T18:51:51.174Z,53.58
2023-04-26T18:54:18.491Z,53.08
2023-04-26T18:56:45.792Z,53.12
2023-04-26T18:59:13.270Z,54.45
2023-04-26T19:01:41.105Z,55.25
2023-04-26T19:04:09.198Z,55.83
2023-04-26T19:06:36.603Z,55.23
2023-04-26T19:09:06.119Z,56.37
2023-04-26T19:11:33.498Z,55.67
2023-04-26T19:14:00.905Z,55.74
2023-04-26T19:16:28.596Z,55.62
2023-04-26T19:18:55.944Z,55.81
2023-04-26T19:21:23.134Z,55.97
2023-04-26T19:23:50.612Z,56.08
2023-04-26T19:26:18.081Z,56.13
2023-04-26T19:28:45.606Z,56.67
2023-04-26T19:31:13.095Z,56.93
2023-04-26T19:33:40.650Z,57.72
2023-04-26T19:36:09.137Z,58.14
2023-04-26T19:38:36.373Z,58.13
2023-04-26T19:41:03.620Z,59.05
2023-04-26T19:43:31.004Z,59.24
2023-04-26T19:45:58.184Z,59.06
2023-04-26T19:48:26.476Z,58.64
2023-04-26T19:50:53.664Z,58.39
2023-04-26T19:53:21.050Z,58.83
2023-04-26T19:55:48.859Z,58.62
2023-04-26T19:58:16.391Z,59.18
2023-04-26T20:00:43.869Z,58.71
2023-04-26T20:03:11.403Z,58.46
2023-04-26T20:05:38.727Z,57.96
2023-04-26T20:08:05.967Z,57.73
2023-04-26T20:10:34.049Z,57.58
2023-04-26T20:13:02.479Z,57.37
2023-04-26T20:15:32.173Z,57.56
2023-04-26T20:18:02.313Z,57.51
2023-04-26T20:20:29.694Z,57.76
2023-04-26T20:22:57.027Z,57.95
2023-04-26T20:25:24.203Z,58.41
2023-04-26T20:27:51.549Z,59.11
2023-04-26T20:30:18.703Z,58.09
2023-04-26T20:32:46.093Z,58.19
2023-04-26T20:35:13.896Z,57.58
2023-04-26T20:37:41.113Z,57.87
2023-04-26T20:40:09.383Z,58.72
2023-04-26T20:42:36.800Z,56.76
2023-04-26T20:45:04.400Z,58.58
2023-04-26T20:47:32.123Z,58.71
2023-04-26T20:49:59.350Z,59.37
2023-04-26T20:52:26.786Z,58.01
2023-04-26T20:54:54.017Z,56.39
2023-04-26T20:57:21.252Z,55.46
2023-04-26T20:59:48.424Z,55.20
2023-04-26T21:02:16.067Z,54.43
2023-04-26T21:04:43.596Z,54.04
2023-04-26T21:07:11.213Z,54.13
2023-04-26T21:09:38.599Z,53.86
2023-04-26T21:12:06.837Z,53.82
2023-04-26T21:14:34.060Z,54.20
2023-04-26T21:17:01.527Z,54.35
2023-04-26T21:19:28.683Z,55.16
2023-04-26T21:21:56.709Z,55.29
2023-04-26T21:24:23.865Z,54.24
2023-04-26T21:26:51.111Z,56.28
2023-04-26T21:29:18.323Z,58.18
2023-04-26T21:31:45.883Z,59.58
2023-04-26T21:34:13.139Z,59.04
2023-04-26T21:36:40.482Z,59.24
2023-04-26T21:39:07.760Z,59.97
2023-04-26T21:41:35.193Z,60.68
2023-04-26T21:44:02.417Z,60.64
2023-04-26T21:46:29.809Z,61.67
2023-04-26T21:48:57.053Z,61.76
2023-04-26T21:51:24.648Z,61.35
2023-04-26T21:53:51.963Z,61.30
2023-04-26T21:56:19.196Z,62.71
2023-04-26T21:58:46.541Z,62.82
2023-04-26T22:01:14.799Z,63.54
2023-04-26T22:03:42.214Z,63.08
2023-04-26T22:06:09.814Z,63.00
2023-04-26T22:08:37.045Z,63.11
2023-04-26T22:11:04.398Z,63.15
2023-04-26T22:13:32.392Z,62.03
2023-04-26T22:15:59.881Z,61.60
2023-04-26T22:18:27.194Z,62.02
2023-04-26T22:20:54.550Z,61.35
2023-04-26T22:23:21.728Z,62.03
2023-04-26T22:25:49.105Z,60.64
2023-04-26T22:28:16.575Z,60.53
2023-04-26T22:30:43.859Z,60.31
2023-04-26T22:33:12.297Z,58.45
2023-04-26T22:35:39.858Z,59.52
2023-04-26T22:38:07.079Z,59.24
2023-04-26T22:40:35.304Z,59.30
2023-04-26T22:43:03.100Z,60.29
2023-04-26T22:45:30.422Z,59.89
2023-04-26T22:47:57.869Z,58.08
2023-04-26T22:50:25.438Z,58.16
2023-04-26T22:52:52.661Z,58.74
2023-04-26T22:55:20.051Z,59.46
2023-04-26T22:57:47.286Z,59.22
2023-04-26T23:00:15.253Z,59.16
2023-04-26T23:02:42.636Z,58.87
2023-04-26T23:05:10.376Z,58.51
2023-04-26T23:07:38.651Z,58.49
2023-04-26T23:10:06.736Z,57.90
2023-04-26T23:12:33.982Z,58.59
2023-04-26T23:15:01.926Z,57.03
2023-04-26T23:17:29.174Z,57.39
2023-04-26T23:19:56.642Z,58.35
2023-04-26T23:22:23.952Z,58.49
2023-04-26T23:24:51.712Z,59.08
2023-04-26T23:27:20.872Z,58.95
2023-04-26T23:29:49.944Z,58.47
2023-04-26T23:32:17.085Z,58.68
2023-04-26T23:34:44.428Z,58.58
2023-04-26T23:37:11.618Z,57.22
2023-04-26T23:39:38.887Z,58.04
2023-04-26T23:42:06.692Z,58.18
2023-04-26T23:44:34.006Z,57.48
2023-04-26T23:47:01.255Z,57.31
2023-04-26T23:49:28.669Z,57.36
2023-04-26T23:51:55.966Z,57.13
2023-04-26T23:54:23.248Z,57.67
2023-04-26T23:56:50.816Z,57.98
2023-04-26T23:59:18.273Z,58.03
